createdAt,value
2019-05-12T17:46:13.558Z,89.29
2019-05-12T17:48:42.715Z,89.99
2019-05-12T17:51:08.354Z,90.16
2019-05-12T17:53:37.661Z,90.42
2019-05-12T17:56:04.909Z,90.70
2019-05-12T17:58:36.147Z,90.17
2019-05-12T18:01:00.776Z,90.07
2019-05-12T18:03:27.800Z,89.69
2019-05-12T18:05:54.746Z,90.17
2019-05-12T18:08:23.960Z,89.99
2019-05-12T18:10:51.502Z,90.04
2019-05-12T18:13:23.020Z,89.05
2019-05-12T18:15:47.424Z,89.42
2019-05-12T18:18:17.384Z,89.42
2019-05-12T18:20:44.545Z,89.75
2019-05-12T18:23:13.472Z,90.38
2019-05-12T18:25:40.536Z,89.46
2019-05-12T18:28:07.385Z,89.49
2019-05-12T18:30:34.630Z,90.03
2019-05-12T18:33:08.678Z,90.00
2019-05-12T18:35:30.393Z,89.66
2019-05-12T18:37:57.417Z,89.63
2019-05-12T18:40:27.532Z,89.71
2019-05-12T18:42:53.476Z,89.33
2019-05-12T18:45:23.784Z,89.63
2019-05-12T18:47:50.269Z,89.52
2019-05-12T18:50:20.798Z,90.04
2019-05-12T18:52:47.288Z,89.74
2019-05-12T18:55:15.798Z,90.02
2019-05-12T18:57:46.189Z,90.21
2019-05-12T19:00:16.089Z,90.32
2019-05-12T19:02:44.263Z,90.34
2019-05-12T19:05:15.246Z,90.13
2019-05-12T19:07:40.658Z,89.38
2019-05-12T19:10:07.739Z,89.57
2019-05-12T19:12:35.623Z,89.70
2019-05-12T19:15:04.674Z,89.56
2019-05-12T19:17:33.855Z,90.07
2019-05-12T19:20:01.642Z,90.03
2019-05-12T19:22:28.734Z,90.31
2019-05-12T19:24:59.677Z,90.27
2019-05-12T19:27:24.694Z,90.29
2019-05-12T19:29:54.416Z,90.33
2019-05-12T19:32:20.676Z,90.26
2019-05-12T19:34:47.685Z,90.40
2019-05-12T19:37:19.449Z,90.74
2019-05-12T19:39:44.530Z,90.70
2019-05-12T19:42:18.626Z,90.25
2019-05-12T19:44:40.297Z,90.60
2019-05-12T19:47:07.336Z,90.88
2019-05-12T19:49:46.892Z,91.09
2019-05-12T19:52:03.688Z,91.34
2019-05-12T19:54:36.307Z,91.15
2019-05-12T19:57:00.010Z,91.06
2019-05-12T19:59:26.640Z,91.13
2019-05-12T20:01:54.113Z,91.17
2019-05-12T20:04:31.865Z,91.09
2019-05-12T20:06:50.289Z,91.05
2019-05-12T20:09:17.282Z,91.11
2019-05-12T20:11:46.642Z,91.42
2019-05-12T20:14:16.663Z,91.70
2019-05-12T20:16:43.947Z,91.37
2019-05-12T20:19:10.751Z,91.55
2019-05-12T20:21:38.103Z,91.83
2019-05-12T20:24:05.253Z,91.91
2019-05-12T20:26:33.033Z,92.04
2019-05-12T20:29:04.399Z,92.05
2019-05-12T20:31:36.828Z,92.10
2019-05-12T20:34:04.544Z,92.24
2019-05-12T20:36:28.437Z,92.50
2019-05-12T20:38:55.418Z,92.76
2019-05-12T20:41:26.555Z,92.42
2019-05-12T20:43:52.174Z,92.33
2019-05-12T20:46:21.910Z,92.58
2019-05-12T20:48:47.714Z,92.65
2019-05-12T20:51:20.153Z,92.68
2019-05-12T20:53:44.715Z,92.87
2019-05-12T20:56:12.191Z,92.72
2019-05-12T20:58:43.694Z,92.57
2019-05-12T21:01:09.090Z,92.48
2019-05-12T21:03:39.940Z,92.56
2019-05-12T21:06:05.358Z,92.53
2019-05-12T21:08:33.879Z,92.21
2019-05-12T21:11:00.768Z,92.31
2019-05-12T21:13:31.855Z,92.64
2019-05-12T21:15:56.393Z,92.80
2019-05-12T21:18:23.743Z,92.13
2019-05-12T21:20:52.178Z,91.84
2019-05-12T21:23:19.381Z,91.88
2019-05-12T21:25:52.562Z,92.15
2019-05-12T21:28:15.044Z,92.11
2019-05-12T21:30:42.315Z,92.33
2019-05-12T21:33:10.672Z,92.23
2019-05-12T21:35:40.513Z,92.06
2019-05-12T21:38:06.390Z,91.97
2019-05-12T21:40:35.072Z,91.84
2019-05-12T21:43:04.147Z,91.91
2019-05-12T21:45:33.862Z,92.02
2019-05-12T21:48:00.815Z,92.04
2019-05-12T21:50:32.397Z,92.11
2019-05-12T21:52:59.794Z,92.22
2019-05-12T21:55:26.501Z,92.29
2019-05-12T21:57:53.932Z,92.40
2019-05-12T22:00:25.027Z,92.56
2019-05-12T22:02:56.474Z,92.48
2019-05-12T22:05:46.693Z,92.72
2019-05-12T22:07:51.363Z,92.67
2019-05-12T22:10:25.231Z,92.32
2019-05-12T22:12:47.583Z,91.82
2019-05-12T22:15:21.327Z,91.55
2019-05-12T22:18:00.868Z,91.46
2019-05-12T22:20:32.689Z,91.46
2019-05-12T22:23:00.563Z,90.66
2019-05-12T22:25:28.641Z,90.50
2019-05-12T22:27:59.160Z,90.73
2019-05-12T22:30:24.522Z,90.60
2019-05-12T22:32:51.511Z,90.87
2019-05-12T22:35:21.965Z,91.03
2019-05-12T22:37:46.924Z,91.15
2019-05-12T22:40:19.092Z,91.11
2019-05-12T22:42:44.483Z,90.49
2019-05-12T22:45:15.135Z,90.62
2019-05-12T22:47:41.073Z,90.57
2019-05-12T22:50:08.434Z,90.44
2019-05-12T22:52:38.985Z,90.46
2019-05-12T22:55:05.446Z,90.90
2019-05-12T22:57:38.293Z,90.87
2019-05-12T23:00:00.821Z,90.87
2019-05-12T23:02:31.147Z,91.27
2019-05-12T23:04:58.195Z,91.39
2019-05-12T23:07:29.531Z,91.48
2019-05-12T23:09:53.982Z,91.66
2019-05-12T23:12:20.705Z,91.29
2019-05-12T23:14:48.114Z,91.33
2019-05-12T23:17:15.316Z,91.10
2019-05-12T23:19:51.030Z,91.23
2019-05-12T23:22:10.954Z,91.50
2019-05-12T23:24:40.746Z,91.66
2019-05-12T23:27:08.892Z,91.92
2019-05-12T23:29:34.834Z,91.75
2019-05-12T23:32:07.440Z,91.89
2019-05-12T23:34:30.454Z,92.01
2019-05-12T23:36:59.997Z,91.93
2019-05-12T23:39:26.199Z,91.34
2019-05-12T23:41:53.752Z,91.33
2019-05-12T23:44:20.943Z,91.00
2019-05-12T23:46:48.274Z,90.98
2019-05-12T23:49:15.238Z,91.12
2019-05-12T23:51:43.834Z,91.10
2019-05-12T23:54:10.934Z,90.54
2019-05-12T23:56:38.003Z,90.09
2019-05-12T23:59:04.865Z,89.97
